Time,TemperatureF,DewpointF,PressureIn,WindDirection,WindDirectionDegrees,WindSpeedMPH,WindSpeedGustMPH,Humidity,HourlyPrecipIn,Conditions,Clouds,dailyrainin,SoftwareType,DateUTC
2013-05-13 00:12:00,70.5,31.0,30.16,West,261,18.0,-999.0,23,-99.99,,,0.00,weatherlink.com 1.10,2013-05-13 06:12:00,
2013-05-13 00:27:00,70.2,32.0,30.17,NW,317,12.0,-999.0,24,-99.99,,,0.00,weatherlink.com 1.10,2013-05-13 06:27:00,
2013-05-13 00:42:00,69.9,31.0,30.17,West,275,17.0,-999.0,24,-99.99,,,0.00,weatherlink.com 1.10,2013-05-13 06:42:00,
2013-05-13 00:57:00,70.3,31.0,30.16,WNW,284,20.0,-999.0,23,-99.99,,,0.00,weatherlink.com 1.10,2013-05-13 06:57:00,
2013-05-13 01:12:00,70.6,31.0,30.17,WSW,257,16.0,-999.0,23,-99.99,,,0.00,weatherlink.com 1.10,2013-05-13 07:12:00,
2013-05-13 01:27:00,70.1,32.0,30.17,WNW,292,14.0,-999.0,24,-99.99,,,0.00,weatherlink.com 1.10,2013-05-13 07:27:00,
2013-05-13 01:42:00,69.9,31.0,30.17,West,261,12.0,-999.0,24,-99.99,,,0.00,weatherlink.com 1.10,2013-05-13 07:42:00,
2013-05-13 01:57:00,69.3,32.0,30.17,WNW,300,6.0,-999.0,25,-99.99,,,0.00,weatherlink.com 1.10,2013-05-13 07:57:00,
2013-05-13 02:12:00,68.8,31.0,30.17,WNW,291,6.0,-999.0,25,-99.99,,,0.00,weatherlink.com 1.10,2013-05-13 08:12:00,
2013-05-13 02:27:00,68.7,32.0,30.17,WNW,303,7.0,-999.0,26,-99.99,,,0.00,weatherlink.com 1.10,2013-05-13 08:27:00,
2013-05-13 02:42:00,68.4,32.0,30.17,WNW,301,9.0,-999.0,26,-99.99,,,0.00,weatherlink.com 1.10,2013-05-13 08:42:00,
2013-05-13 02:57:00,67.9,33.0,30.16,WNW,288,2.0,-999.0,27,-99.99,,,0.00,weatherlink.com 1.10,2013-05-13 08:57:00,
2013-05-13 03:12:00,67.7,32.0,30.16,NW,313,8.0,-999.0,27,-99.99,,,0.00,weatherlink.com 1.10,2013-05-13 09:12:00,
2013-05-13 03:27:00,68.4,32.0,30.16,NW,321,12.0,-999.0,26,-99.99,,,0.00,weatherlink.com 1.10,2013-05-13 09:27:00,
2013-05-13 03:42:00,68.1,33.0,30.17,NW,306,9.0,-999.0,27,-99.99,,,0.00,weatherlink.com 1.10,2013-05-13 09:42:00,
2013-05-13 03:57:00,68.8,32.0,30.17,NW,307,10.0,-999.0,26,-99.99,,,0.00,weatherlink.com 1.10,2013-05-13 09:57:00,
2013-05-13 04:11:00,68.5,32.0,30.17,WNW,292,9.0,-999.0,26,-99.99,,,0.00,weatherlink.com 1.10,2013-05-13 10:11:00,
2013-05-13 04:26:00,68.5,32.0,30.17,West,275,6.0,-999.0,26,-99.99,,,0.00,weatherlink.com 1.10,2013-05-13 10:26:00,
2013-05-13 04:41:00,67.7,32.0,30.17,WNW,297,12.0,-999.0,27,-99.99,,,0.00,weatherlink.com 1.10,2013-05-13 10:41:00,
2013-05-13 04:56:00,67.9,33.0,30.17,West,274,11.0,-999.0,27,-99.99,,,0.00,weatherlink.com 1.10,2013-05-13 10:56:00,
2013-05-13 05:11:00,69.5,32.0,30.17,West,269,19.0,-999.0,25,-99.99,,,0.00,weatherlink.com 1.10,2013-05-13 11:11:00,
2013-05-13 05:26:00,69.8,31.0,30.17,West,269,22.0,-999.0,24,-99.99,,,0.00,weatherlink.com 1.10,2013-05-13 11:26:00,
2013-05-13 05:42:00,69.8,32.0,30.17,WNW,292,12.0,-999.0,25,-99.99,,,0.00,weatherlink.com 1.10,2013-05-13 11:42:00,
2013-05-13 05:57:00,69.4,33.0,30.18,WNW,288,12.0,-999.0,26,-99.99,,,0.00,weatherlink.com 1.10,2013-05-13 11:57:00,
2013-05-13 06:12:00,68.1,33.0,30.18,WNW,297,15.0,-999.0,27,-99.99,,,0.00,weatherlink.com 1.10,2013-05-13 12:12:00,
2013-05-13 06:27:00,68.4,33.0,30.19,West,281,11.0,-999.0,27,-99.99,,,0.00,weatherlink.com 1.10,2013-05-13 12:27:00,
2013-05-13 06:42:00,68.3,34.0,30.19,WSW,254,17.0,-999.0,28,-99.99,,,0.00,weatherlink.com 1.10,2013-05-13 12:42:00,
2013-05-13 06:57:00,68.4,35.0,30.20,WNW,296,10.0,-999.0,29,-99.99,,,0.00,weatherlink.com 1.10,2013-05-13 12:57:00,
2013-05-13 07:12:00,69.2,34.0,30.20,NNW,327,18.0,-999.0,27,-99.99,,,0.00,weatherlink.com 1.10,2013-05-13 13:12:00,
2013-05-13 07:27:00,70.5,34.0,30.21,WNW,284,8.0,-999.0,26,-99.99,,,0.00,weatherlink.com 1.10,2013-05-13 13:27:00,
2013-05-13 07:42:00,71.4,36.0,30.21,WNW,292,10.0,-999.0,27,-99.99,,,0.00,weatherlink.com 1.10,2013-05-13 13:42:00,
2013-05-13 07:57:00,71.6,36.0,30.21,WNW,298,12.0,-999.0,27,-99.99,,,0.00,weatherlink.com 1.10,2013-05-13 13:57:00,
2013-05-13 08:12:00,71.9,36.0,30.21,WNW,296,17.0,-999.0,27,-99.99,,,0.00,weatherlink.com 1.10,2013-05-13 14:12:00,
2013-05-13 08:27:00,72.9,36.0,30.21,NW,307,16.0,-999.0,26,-99.99,,,0.00,weatherlink.com 1.10,2013-05-13 14:27:00,
2013-05-13 08:42:00,74.1,36.0,30.21,NW,312,6.0,-999.0,25,-99.99,,,0.00,weatherlink.com 1.10,2013-05-13 14:42:00,
2013-05-13 08:56:00,74.8,40.0,30.22,WSW,243,6.0,-999.0,28,-99.99,,,0.00,weatherlink.com 1.10,2013-05-13 14:56:00,
2013-05-13 09:12:00,75.2,37.0,30.22,West,275,2.0,-999.0,25,-99.99,,,0.00,weatherlink.com 1.10,2013-05-13 15:12:00,
2013-05-13 09:27:00,75.8,38.0,30.22,NW,311,4.0,-999.0,26,-99.99,,,0.00,weatherlink.com 1.10,2013-05-13 15:27:00,
2013-05-13 09:42:00,76.5,35.0,30.22,NE,55,0.0,-999.0,22,-99.99,,,0.00,weatherlink.com 1.10,2013-05-13 15:42:00,
2013-05-13 09:57:00,77.3,39.0,30.21,South,187,9.0,-999.0,25,-99.99,,,0.00,weatherlink.com 1.10,2013-05-13 15:57:00,
2013-05-13 10:12:00,77.8,37.0,30.21,NNW,334,4.0,-999.0,23,-99.99,,,0.00,weatherlink.com 1.10,2013-05-13 16:12:00,
2013-05-13 10:27:00,77.7,35.0,30.21,North,355,17.0,-999.0,21,-99.99,,,0.00,weatherlink.com 1.10,2013-05-13 16:27:00,
2013-05-13 10:42:00,78.1,34.0,30.21,North,11,13.0,-999.0,20,-99.99,,,0.00,weatherlink.com 1.10,2013-05-13 16:42:00,
2013-05-13 10:57:00,78.5,35.0,30.21,NNW,335,16.0,-999.0,21,-99.99,,,0.00,weatherlink.com 1.10,2013-05-13 16:57:00,
2013-05-13 11:12:00,78.8,37.0,30.21,West,280,6.0,-999.0,22,-99.99,,,0.00,weatherlink.com 1.10,2013-05-13 17:12:00,
2013-05-13 11:27:00,78.8,37.0,30.21,NNW,342,10.0,-999.0,22,-99.99,,,0.00,weatherlink.com 1.10,2013-05-13 17:27:00,
2013-05-13 11:42:00,79.9,39.0,30.20,ENE,74,4.0,-999.0,23,-99.99,,,0.00,weatherlink.com 1.10,2013-05-13 17:42:00,
2013-05-13 11:57:00,81.0,39.0,30.20,NE,38,13.0,-999.0,22,-99.99,,,0.00,weatherlink.com 1.10,2013-05-13 17:57:00,
2013-05-13 12:12:00,81.0,36.0,30.20,NNE,30,6.0,-999.0,20,-99.99,,,0.00,weatherlink.com 1.10,2013-05-13 18:12:00,
2013-05-13 12:27:00,81.7,38.0,30.20,NNE,16,10.0,-999.0,21,-99.99,,,0.00,weatherlink.com 1.10,2013-05-13 18:27:00,
2013-05-13 12:42:00,80.2,39.0,30.20,ENE,64,11.0,-999.0,23,-99.99,,,0.00,weatherlink.com 1.10,2013-05-13 18:42:00,
2013-05-13 12:57:00,81.4,40.0,30.20,NE,49,13.0,-999.0,23,-99.99,,,0.00,weatherlink.com 1.10,2013-05-13 18:57:00,
2013-05-13 13:12:00,81.8,38.0,30.19,NE,34,9.0,-999.0,21,-99.99,,,0.00,weatherlink.com 1.10,2013-05-13 19:12:00,
2013-05-13 13:27:00,81.9,38.0,30.19,NE,44,11.0,-999.0,21,-99.99,,,0.00,weatherlink.com 1.10,2013-05-13 19:27:00,
2013-05-13 13:42:00,82.3,39.0,30.19,NNE,24,4.0,-999.0,21,-99.99,,,0.00,weatherlink.com 1.10,2013-05-13 19:42:00,
2013-05-13 13:57:00,83.6,43.0,30.18,ESE,107,7.0,-999.0,24,-99.99,,,0.00,weatherlink.com 1.10,2013-05-13 19:57:00,
2013-05-13 14:12:00,83.8,39.0,30.18,SE,141,3.0,-999.0,20,-99.99,,,0.00,weatherlink.com 1.10,2013-05-13 20:12:00,
2013-05-13 14:27:00,82.7,40.0,30.18,ESE,123,5.0,-999.0,22,-99.99,,,0.00,weatherlink.com 1.10,2013-05-13 20:27:00,
2013-05-13 14:42:00,82.0,40.0,30.17,NE,43,3.0,-999.0,22,-99.99,,,0.00,weatherlink.com 1.10,2013-05-13 20:42:00,
2013-05-13 14:57:00,81.5,38.0,30.17,NNE,31,1.0,-999.0,21,-99.99,,,0.00,weatherlink.com 1.10,2013-05-13 20:57:00,
2013-05-13 15:11:00,83.1,43.0,30.17,ESE,109,5.0,-999.0,24,-99.99,,,0.00,weatherlink.com 1.10,2013-05-13 21:11:00,
2013-05-13 15:27:00,83.0,43.0,30.16,ESE,123,5.0,-999.0,24,-99.99,,,0.00,weatherlink.com 1.10,2013-05-13 21:27:00,
2013-05-13 15:42:00,83.5,45.0,30.16,SE,127,11.0,-999.0,26,-99.99,,,0.00,weatherlink.com 1.10,2013-05-13 21:42:00,
2013-05-13 15:57:00,83.6,44.0,30.15,SE,124,6.0,-999.0,25,-99.99,,,0.00,weatherlink.com 1.10,2013-05-13 21:57:00,
2013-05-13 16:12:00,83.9,41.0,30.15,SE,130,6.0,-999.0,22,-99.99,,,0.00,weatherlink.com 1.10,2013-05-13 22:12:00,
2013-05-13 16:27:00,84.0,43.0,30.14,SE,138,9.0,-999.0,24,-99.99,,,0.00,weatherlink.com 1.10,2013-05-13 22:27:00,
2013-05-13 16:42:00,83.4,41.0,30.14,ESE,112,7.0,-999.0,22,-99.99,,,0.00,weatherlink.com 1.10,2013-05-13 22:42:00,
2013-05-13 16:57:00,83.3,45.0,30.14,SSE,155,5.0,-999.0,26,-99.99,,,0.00,weatherlink.com 1.10,2013-05-13 22:57:00,
2013-05-13 17:12:00,82.1,45.0,30.14,East,95,6.0,-999.0,27,-99.99,,,0.00,weatherlink.com 1.10,2013-05-13 23:12:00,
2013-05-13 17:27:00,82.4,43.0,30.14,East,83,5.0,-999.0,25,-99.99,,,0.00,weatherlink.com 1.10,2013-05-13 23:27:00,
2013-05-13 17:42:00,81.4,42.0,30.13,ESE,112,2.0,-999.0,25,-99.99,,,0.00,weatherlink.com 1.10,2013-05-13 23:42:00,
2013-05-13 17:57:00,80.7,43.0,30.13,ESE,105,2.0,-999.0,26,-99.99,,,0.00,weatherlink.com 1.10,2013-05-13 23:57:00,
2013-05-13 18:12:00,80.5,46.0,30.13,ESE,107,2.0,-999.0,30,-99.99,,,0.00,weatherlink.com 1.10,2013-05-14 00:12:00,
2013-05-13 18:27:00,80.0,47.0,30.12,ESE,107,1.0,-999.0,31,-99.99,,,0.00,weatherlink.com 1.10,2013-05-14 00:27:00,
2013-05-13 18:42:00,78.4,45.0,30.12,ESE,107,1.0,-999.0,31,-99.99,,,0.00,weatherlink.com 1.10,2013-05-14 00:42:00,
2013-05-13 18:57:00,77.6,46.0,30.12,WNW,290,3.0,-999.0,33,-99.99,,,0.00,weatherlink.com 1.10,2013-05-14 00:57:00,
2013-05-13 19:12:00,76.5,46.0,30.12,WNW,292,3.0,-999.0,34,-99.99,,,0.00,weatherlink.com 1.10,2013-05-14 01:12:00,
2013-05-13 19:27:00,75.5,45.0,30.13,WNW,288,3.0,-999.0,34,-99.99,,,0.00,weatherlink.com 1.10,2013-05-14 01:27:00,
2013-05-13 19:42:00,73.3,47.0,30.12,WNW,294,4.0,-999.0,39,-99.99,,,0.00,weatherlink.com 1.10,2013-05-14 01:42:00,
2013-05-13 19:57:00,71.6,45.0,30.12,West,275,3.0,-999.0,38,-99.99,,,0.00,weatherlink.com 1.10,2013-05-14 01:57:00,
2013-05-13 20:12:00,70.4,44.0,30.12,West,272,6.0,-999.0,39,-99.99,,,0.00,weatherlink.com 1.10,2013-05-14 02:12:00,
2013-05-13 20:27:00,69.5,43.0,30.12,WSW,244,6.0,-999.0,39,-99.99,,,0.00,weatherlink.com 1.10,2013-05-14 02:27:00,
2013-05-13 20:42:00,68.9,41.0,30.12,West,263,6.0,-999.0,37,-99.99,,,0.00,weatherlink.com 1.10,2013-05-14 02:42:00,
2013-05-13 20:57:00,69.0,41.0,30.12,WNW,283,3.0,-999.0,36,-99.99,,,0.00,weatherlink.com 1.10,2013-05-14 02:57:00,
2013-05-13 21:12:00,68.1,41.0,30.12,West,273,8.0,-999.0,37,-99.99,,,0.00,weatherlink.com 1.10,2013-05-14 03:12:00,
2013-05-13 21:27:00,68.0,41.0,30.12,WSW,254,7.0,-999.0,37,-99.99,,,0.00,weatherlink.com 1.10,2013-05-14 03:27:00,
2013-05-13 21:42:00,68.1,41.0,30.12,West,277,6.0,-999.0,37,-99.99,,,0.00,weatherlink.com 1.10,2013-05-14 03:42:00,
2013-05-13 21:57:00,68.3,38.0,30.13,West,260,5.0,-999.0,33,-99.99,,,0.00,weatherlink.com 1.10,2013-05-14 03:57:00,
2013-05-13 22:12:00,68.2,36.0,30.13,WSW,251,6.0,-999.0,31,-99.99,,,0.00,weatherlink.com 1.10,2013-05-14 04:12:00,
2013-05-13 22:27:00,69.5,35.0,30.12,NW,305,12.0,-999.0,28,-99.99,,,0.00,weatherlink.com 1.10,2013-05-14 04:27:00,
2013-05-13 22:42:00,69.7,34.0,30.12,SW,230,5.0,-999.0,27,-99.99,,,0.00,weatherlink.com 1.10,2013-05-14 04:42:00,
2013-05-13 22:57:00,68.8,36.0,30.11,West,267,11.0,-999.0,30,-99.99,,,0.00,weatherlink.com 1.10,2013-05-14 04:57:00,
2013-05-13 23:12:00,68.3,35.0,30.11,West,268,10.0,-999.0,29,-99.99,,,0.00,weatherlink.com 1.10,2013-05-14 05:12:00,
2013-05-13 23:27:00,69.5,35.0,30.11,West,272,12.0,-999.0,28,-99.99,,,0.00,weatherlink.com 1.10,2013-05-14 05:27:00,
2013-05-13 23:42:00,69.5,35.0,30.11,West,259,7.0,-999.0,28,-99.99,,,0.00,weatherlink.com 1.10,2013-05-14 05:42:00,
2013-05-13 23:57:00,69.3,35.0,30.10,WNW,291,11.0,-999.0,28,-99.99,,,0.00,weatherlink.com 1.10,2013-05-14 05:57:00,